Time;durP1;ratioP1;P1;durP2;ratioP2;P2;SDS_P1;SDS_P2;PMS_P1;PMS_P2;Temp;Humidity;BMP_temperature;BMP_pressure;BME280_temperature;BME280_humidity;BME280_pressure;Samples;Min_cycle;Max_cycle;Signal;HPM_P1;HPM_P2
2022/10/26 00:00:42;;;;;;;19.67;13.50;;;9.70;99.90;;;;;;4967304;28;20122;-75
2022/10/26 00:03:08;;;;;;;22.73;16.05;;;9.70;99.90;;;;;;4959125;28;20193;-75
2022/10/26 00:05:35;;;;;;;22.13;16.92;;;9.70;99.90;;;;;;4976476;28;20058;-75
2022/10/26 00:08:01;;;;;;;44.58;24.27;;;9.70;99.90;;;;;;4975042;28;20053;-75
2022/10/26 00:10:27;;;;;;;24.92;17.48;;;9.70;99.90;;;;;;4975709;28;20474;-75
2022/10/26 00:12:53;;;;;;;22.77;16.17;;;9.60;99.90;;;;;;4974999;28;20114;-75
2022/10/26 00:15:19;;;;;;;21.63;14.80;;;9.70;99.90;;;;;;4976214;28;20043;-75
2022/10/26 00:17:46;;;;;;;17.08;10.95;;;9.70;99.90;;;;;;4985913;28;20050;-75
2022/10/26 00:20:13;;;;;;;15.18;10.63;;;9.70;99.90;;;;;;4994671;28;20042;-75
2022/10/26 00:22:39;;;;;;;14.18;10.27;;;9.70;99.90;;;;;;5004295;28;20049;-75
2022/10/26 00:25:06;;;;;;;15.32;10.35;;;9.80;99.90;;;;;;4988636;28;20042;-75
2022/10/26 00:27:33;;;;;;;26.10;17.33;;;9.80;99.90;;;;;;5006082;28;20047;-75
2022/10/26 00:30:00;;;;;;;16.35;10.82;;;9.80;99.90;;;;;;4958880;28;20054;-75
2022/10/26 00:32:26;;;;;;;18.00;12.95;;;9.70;99.90;;;;;;4958360;28;20090;-75
2022/10/26 00:34:52;;;;;;;17.92;13.65;;;9.70;99.90;;;;;;4974043;28;20378;-75
2022/10/26 00:37:17;;;;;;;14.27;10.38;;;9.70;99.90;;;;;;4974581;28;20058;-75
2022/10/26 00:39:43;;;;;;;19.63;14.70;;;9.70;99.90;;;;;;4971288;28;20058;-74
2022/10/26 00:42:17;;;;;;;15.52;11.20;;;9.70;99.90;;;;;;4969008;28;20039;-74
2022/10/26 00:44:45;;;;;;;21.48;15.68;;;9.70;99.90;;;;;;4961263;28;20065;-74
2022/10/26 00:47:35;;;;;;;17.45;13.15;;;9.70;99.90;;;;;;4974856;28;20047;-74
2022/10/26 00:50:21;;;;;;;14.82;10.63;;;9.70;99.90;;;;;;4962588;28;20057;-75
2022/10/26 00:52:49;;;;;;;23.67;16.23;;;9.60;99.90;;;;;;4976783;28;20118;-75
2022/10/26 00:55:20;;;;;;;18.75;13.05;;;9.60;99.90;;;;;;4984991;28;20126;-74
2022/10/26 00:57:46;;;;;;;17.17;11.80;;;9.60;99.90;;;;;;4972151;28;20050;-74
2022/10/26 01:00:12;;;;;;;14.38;11.02;;;9.60;99.90;;;;;;4955282;28;20110;-74
2022/10/26 01:02:38;;;;;;;15.15;11.07;;;9.50;99.90;;;;;;4968447;28;20054;-74
2022/10/26 01:05:05;;;;;;;13.35;10.20;;;9.50;99.90;;;;;;4967855;28;20514;-74
2022/10/26 01:07:32;;;;;;;14.05;10.23;;;9.50;99.90;;;;;;4966481;28;20062;-75
2022/10/26 01:09:59;;;;;;;13.75;9.90;;;9.50;99.90;;;;;;4944749;28;20077;-74
2022/10/26 01:12:25;;;;;;;14.07;9.88;;;9.50;99.90;;;;;;4974444;28;20050;-74
2022/10/26 01:14:51;;;;;;;12.57;9.40;;;9.50;99.90;;;;;;4973607;28;20050;-74
2022/10/26 01:17:35;;;;;;;15.02;10.30;;;9.50;99.90;;;;;;4981009;28;20125;-74
2022/10/26 01:20:19;;;;;;;14.65;10.02;;;9.50;99.90;;;;;;4974787;28;20053;-74
2022/10/26 01:23:09;;;;;;;17.33;13.18;;;9.50;99.90;;;;;;4962007;28;20057;-75
2022/10/26 01:25:50;;;;;;;29.42;18.45;;;9.50;99.90;;;;;;4956783;28;20061;-74
2022/10/26 01:28:53;;;;;;;21.65;15.82;;;9.50;99.90;;;;;;4973890;28;20047;-75
2022/10/26 01:31:28;;;;;;;19.30;14.27;;;9.30;99.90;;;;;;4962577;28;20151;-75
2022/10/26 01:34:18;;;;;;;20.88;15.82;;;9.30;99.90;;;;;;4972160;28;20058;-74
2022/10/26 01:37:07;;;;;;;17.42;13.32;;;9.30;99.90;;;;;;4972788;28;20619;-74
2022/10/26 01:39:46;;;;;;;16.30;11.63;;;9.30;99.90;;;;;;4973273;28;20034;-74
2022/10/26 01:42:15;;;;;;;16.98;11.82;;;9.20;99.90;;;;;;4973496;28;20042;-75
2022/10/26 01:44:47;;;;;;;16.33;11.40;;;9.20;99.90;;;;;;4957245;28;20052;-74
2022/10/26 01:47:15;;;;;;;16.95;12.10;;;9.20;99.90;;;;;;4974656;28;20502;-74
2022/10/26 01:49:46;;;;;;;14.75;11.00;;;9.30;99.90;;;;;;4972409;28;20051;-74
2022/10/26 01:52:12;;;;;;;14.88;11.50;;;9.20;99.90;;;;;;4973323;28;20050;-74
2022/10/26 01:54:38;;;;;;;15.18;11.27;;;9.20;99.90;;;;;;4957150;28;20105;-74
2022/10/26 01:57:10;;;;;;;19.10;14.20;;;9.20;99.90;;;;;;4974772;28;20054;-74
2022/10/26 01:59:56;;;;;;;15.07;11.02;;;9.10;99.90;;;;;;4972571;28;20057;-74
2022/10/26 02:02:44;;;;;;;14.68;12.00;;;9.10;99.90;;;;;;4966792;28;20043;-74
2022/10/26 02:05:35;;;;;;;15.88;12.20;;;9.20;99.90;;;;;;4984417;28;20430;-74
2022/10/26 02:08:19;;;;;;;26.30;15.98;;;9.10;99.90;;;;;;4992612;28;20061;-74
2022/10/26 02:10:55;;;;;;;23.02;16.50;;;9.10;99.90;;;;;;4967002;28;20050;-74
2022/10/26 02:13:51;;;;;;;17.88;13.90;;;9.10;99.90;;;;;;4973215;28;20046;-74
2022/10/26 02:16:40;;;;;;;22.88;15.52;;;9.00;99.90;;;;;;4973253;28;20054;-74
2022/10/26 02:19:42;;;;;;;21.95;16.42;;;9.00;99.90;;;;;;4972554;28;20130;-74
2022/10/26 02:22:18;;;;;;;24.50;17.45;;;9.00;99.90;;;;;;4982831;28;20096;-74
2022/10/26 02:24:46;;;;;;;20.33;15.57;;;9.00;99.90;;;;;;4978057;28;20120;-74
2022/10/26 02:27:19;;;;;;;24.77;17.65;;;9.00;99.90;;;;;;4966559;28;20046;-75
2022/10/26 02:29:46;;;;;;;24.13;17.63;;;9.00;99.90;;;;;;4961467;28;20363;-75
2022/10/26 02:32:13;;;;;;;26.48;18.80;;;9.00;99.90;;;;;;4999785;28;20054;-73
2022/10/26 02:34:41;;;;;;;27.00;19.00;;;9.20;99.90;;;;;;4971704;28;20054;-74
2022/10/26 02:37:08;;;;;;;28.25;19.85;;;9.30;99.90;;;;;;4962661;28;20054;-73
2022/10/26 02:39:35;;;;;;;28.02;20.80;;;9.30;99.90;;;;;;4994947;28;20051;-73
2022/10/26 02:42:04;;;;;;;29.38;19.65;;;9.40;99.90;;;;;;4961325;28;20039;-73
2022/10/26 02:44:45;;;;;;;28.13;20.00;;;9.40;99.90;;;;;;4984700;28;20085;-74
2022/10/26 02:47:11;;;;;;;33.80;21.55;;;9.40;99.90;;;;;;4978907;28;20049;-74
2022/10/26 02:49:37;;;;;;;31.92;20.60;;;9.40;99.90;;;;;;4975513;28;20057;-74
2022/10/26 02:52:32;;;;;;;29.92;20.65;;;9.40;99.90;;;;;;4962171;28;20046;-72
2022/10/26 02:55:16;;;;;;;26.52;19.73;;;9.40;99.90;;;;;;4961592;28;20050;-73
2022/10/26 02:57:46;;;;;;;32.70;20.48;;;9.30;99.90;;;;;;4973005;28;20038;-73
2022/10/26 03:00:15;;;;;;;31.83;21.35;;;9.30;99.90;;;;;;4971964;28;20101;-73
2022/10/26 03:02:43;;;;;;;29.63;21.50;;;9.20;99.90;;;;;;4972927;28;20395;-75
2022/10/26 03:05:16;;;;;;;35.50;22.85;;;9.20;99.90;;;;;;4971481;28;20463;-77
2022/10/26 03:07:42;;;;;;;32.50;23.27;;;9.30;99.90;;;;;;4972469;28;20042;-73
2022/10/26 03:10:08;;;;;;;33.53;23.08;;;9.30;99.90;;;;;;4972795;28;20046;-74
2022/10/26 03:12:34;;;;;;;33.38;23.30;;;9.30;99.90;;;;;;4989663;28;20078;-76
2022/10/26 03:15:00;;;;;;;32.63;22.42;;;9.40;99.90;;;;;;4956719;28;20480;-74
2022/10/26 03:17:25;;;;;;;33.08;23.48;;;9.40;99.90;;;;;;4971509;28;20058;-74
2022/10/26 03:19:51;;;;;;;33.40;22.70;;;9.50;99.90;;;;;;4999683;28;20047;-72
2022/10/26 03:22:16;;;;;;;33.08;22.17;;;9.40;99.90;;;;;;4989704;28;20118;-74
2022/10/26 03:24:42;;;;;;;31.83;21.33;;;9.40;99.90;;;;;;4976206;28;20046;-73
2022/10/26 03:27:08;;;;;;;35.65;22.30;;;9.40;99.90;;;;;;4960307;28;20086;-73
2022/10/26 03:29:33;;;;;;;34.45;23.67;;;9.40;99.90;;;;;;4956952;28;20471;-72
2022/10/26 03:31:59;;;;;;;31.95;24.02;;;9.40;99.90;;;;;;4966439;28;20050;-73
2022/10/26 03:34:25;;;;;;;33.67;23.20;;;9.50;99.90;;;;;;4975267;28;20047;-75
2022/10/26 03:36:50;;;;;;;33.35;23.80;;;9.50;99.90;;;;;;4973043;28;20470;-77
2022/10/26 03:39:16;;;;;;;36.05;24.67;;;9.40;99.90;;;;;;4970115;28;20544;-76
2022/10/26 03:41:43;;;;;;;37.00;24.15;;;9.40;99.90;;;;;;4976030;28;20046;-76
2022/10/26 03:44:08;;;;;;;36.10;23.25;;;9.50;99.90;;;;;;4971991;28;20047;-75
2022/10/26 03:46:34;;;;;;;31.98;23.20;;;9.50;99.90;;;;;;4956454;28;20065;-75
2022/10/26 03:48:59;;;;;;;33.03;23.92;;;9.50;99.90;;;;;;4958774;28;20051;-76
2022/10/26 03:51:25;;;;;;;36.80;24.98;;;9.40;99.90;;;;;;4972469;28;20073;-76
2022/10/26 03:53:51;;;;;;;37.65;25.50;;;9.40;99.90;;;;;;4975747;28;20093;-76
2022/10/26 03:56:16;;;;;;;34.33;24.98;;;9.30;99.90;;;;;;4972630;28;20475;-75
2022/10/26 03:58:42;;;;;;;35.72;24.95;;;9.30;99.90;;;;;;4973382;28;20109;-75
2022/10/26 04:01:08;;;;;;;35.42;24.42;;;9.30;99.90;;;;;;4956503;28;20113;-76
2022/10/26 04:03:33;;;;;;;33.33;24.05;;;9.30;99.90;;;;;;4961006;28;20074;-76
2022/10/26 04:06:00;;;;;;;32.38;23.48;;;9.30;99.90;;;;;;4975711;28;20078;-76
2022/10/26 04:08:26;;;;;;;35.67;24.90;;;9.90;99.90;;;;;;4974848;28;20378;-75
2022/10/26 04:10:51;;;;;;;35.15;24.67;;;9.20;99.90;;;;;;4978926;28;20121;-76
2022/10/26 04:13:17;;;;;;;37.72;25.23;;;9.20;99.90;;;;;;4954766;28;20050;-75
2022/10/26 04:15:43;;;;;;;34.20;24.20;;;9.20;99.90;;;;;;4973757;28;20074;-76
2022/10/26 04:18:11;;;;;;;33.67;24.15;;;9.20;99.90;;;;;;4966345;28;20038;-76
2022/10/26 04:20:38;;;;;;;34.00;22.90;;;9.20;99.90;;;;;;4980729;28;20042;-74
2022/10/26 04:23:05;;;;;;;34.55;22.98;;;9.20;99.90;;;;;;4981328;28;20043;-76
2022/10/26 04:25:32;;;;;;;32.15;22.23;;;9.30;99.90;;;;;;4964830;28;20125;-74
2022/10/26 04:27:58;;;;;;;33.40;23.35;;;9.30;99.90;;;;;;4975839;28;20038;-73
2022/10/26 04:30:25;;;;;;;33.83;22.75;;;9.30;99.90;;;;;;4955933;29;20059;-75
2022/10/26 04:32:50;;;;;;;31.73;22.10;;;9.30;99.90;;;;;;4970362;28;20065;-74
2022/10/26 04:35:16;;;;;;;34.88;23.55;;;9.30;99.90;;;;;;4974901;28;20134;-73
2022/10/26 04:37:42;;;;;;;30.50;23.55;;;9.20;99.90;;;;;;4974583;28;20523;-76
2022/10/26 04:40:08;;;;;;;33.45;23.38;;;9.20;99.90;;;;;;4958925;28;20467;-76
2022/10/26 04:42:44;;;;;;;35.25;24.00;;;9.30;99.90;;;;;;4971352;28;20043;-75
2022/10/26 04:45:11;;;;;;;36.17;24.10;;;9.30;99.90;;;;;;4968039;28;20386;-75
2022/10/26 04:47:37;;;;;;;36.78;23.45;;;9.30;99.90;;;;;;4977571;28;20054;-75
2022/10/26 04:50:04;;;;;;;34.85;23.10;;;9.30;99.90;;;;;;4945158;28;20061;-73
2022/10/26 04:52:30;;;;;;;32.78;21.75;;;9.30;99.90;;;;;;4974880;28;20061;-76
2022/10/26 04:54:55;;;;;;;34.63;22.30;;;9.40;99.90;;;;;;4958378;28;20383;-76
2022/10/26 04:57:21;;;;;;;29.33;20.08;;;9.40;99.90;;;;;;4966940;28;20043;-72
2022/10/26 04:59:47;;;;;;;32.35;20.48;;;9.50;99.90;;;;;;4968826;28;20042;-74
2022/10/26 05:02:12;;;;;;;28.05;19.13;;;9.50;99.90;;;;;;4974272;28;20051;-73
2022/10/26 05:04:38;;;;;;;28.52;19.17;;;9.60;99.90;;;;;;4973876;28;20050;-75
2022/10/26 05:07:04;;;;;;;29.50;17.20;;;9.70;99.90;;;;;;4973962;28;20113;-73
2022/10/26 05:09:29;;;;;;;25.98;17.35;;;9.70;99.90;;;;;;4947924;28;20043;-72
2022/10/26 05:11:55;;;;;;;29.13;18.13;;;9.90;99.90;;;;;;4984087;28;20042;-73
2022/10/26 05:14:20;;;;;;;26.05;17.10;;;9.90;99.90;;;;;;5009841;28;20038;-72
2022/10/26 05:16:46;;;;;;;23.27;15.00;;;9.90;99.90;;;;;;4984567;28;20094;-73
2022/10/26 05:19:12;;;;;;;25.25;16.15;;;10.00;99.90;;;;;;4986510;28;20141;-74
2022/10/26 05:21:38;;;;;;;24.80;16.35;;;10.10;99.90;;;;;;4956996;28;20054;-75
2022/10/26 05:24:03;;;;;;;23.35;16.00;;;10.10;99.90;;;;;;4954618;28;20090;-76
2022/10/26 05:26:29;;;;;;;22.98;16.27;;;10.10;99.90;;;;;;4961155;28;20122;-75
2022/10/26 05:28:55;;;;;;;25.15;17.88;;;10.10;99.90;;;;;;4956695;28;20477;-76
2022/10/26 05:31:20;;;;;;;26.35;18.17;;;10.10;99.90;;;;;;4962197;28;20113;-75
2022/10/26 05:33:50;;;;;;;30.67;20.08;;;10.00;99.90;;;;;;4983646;28;20494;-75
2022/10/26 05:36:17;;;;;;;31.20;20.65;;;10.00;99.90;;;;;;4964790;28;20042;-74
2022/10/26 05:38:43;;;;;;;26.35;19.23;;;9.90;99.90;;;;;;4963525;28;20031;-74
2022/10/26 05:41:09;;;;;;;28.25;20.05;;;9.90;99.90;;;;;;4961903;28;20054;-75
2022/10/26 05:43:34;;;;;;;29.10;19.55;;;9.90;99.90;;;;;;4955057;28;20538;-74
2022/10/26 05:46:00;;;;;;;29.23;20.05;;;9.80;99.90;;;;;;4968144;28;20043;-75
2022/10/26 05:48:26;;;;;;;29.95;20.33;;;9.80;99.90;;;;;;4979880;28;20387;-76
2022/10/26 05:50:52;;;;;;;26.45;19.15;;;9.70;99.90;;;;;;4968391;28;20078;-73
2022/10/26 05:53:18;;;;;;;28.25;18.70;;;9.80;99.90;;;;;;4968787;28;20051;-77
2022/10/26 05:55:44;;;;;;;26.90;18.63;;;9.80;99.90;;;;;;4956612;28;20054;-73
2022/10/26 05:58:13;;;;;;;24.75;17.77;;;9.90;99.90;;;;;;4969604;28;20387;-77
2022/10/26 06:01:16;;;;;;;25.75;18.38;;;9.90;99.90;;;;;;4962336;28;20174;-73
2022/10/26 06:03:50;;;;;;;23.35;16.85;;;9.90;99.90;;;;;;4963339;28;20039;-74
2022/10/26 06:06:16;;;;;;;23.67;17.58;;;9.90;99.90;;;;;;4956788;28;20047;-73
2022/10/26 06:08:43;;;;;;;23.88;17.52;;;9.90;99.90;;;;;;4951777;28;20043;-74
2022/10/26 06:11:09;;;;;;;23.05;17.00;;;10.00;99.90;;;;;;4942379;28;20054;-75
2022/10/26 06:13:35;;;;;;;22.45;17.08;;;9.90;99.90;;;;;;4965274;28;20053;-77
2022/10/26 06:16:04;;;;;;;23.30;17.50;;;10.00;99.90;;;;;;4925291;28;20382;-74
2022/10/26 06:18:43;;;;;;;24.55;17.70;;;9.90;99.90;;;;;;4973503;28;20479;-75
2022/10/26 06:21:36;;;;;;;23.75;16.40;;;9.90;99.90;;;;;;4985376;28;20471;-76
2022/10/26 06:24:06;;;;;;;22.67;16.02;;;9.90;99.90;;;;;;4969704;28;20082;-76
2022/10/26 06:27:02;;;;;;;21.80;16.67;;;9.90;99.90;;;;;;4967493;28;20050;-75
2022/10/26 06:29:56;;;;;;;24.73;16.08;;;10.00;99.90;;;;;;4968985;28;20150;-73
2022/10/26 06:32:25;;;;;;;23.88;15.32;;;10.00;99.90;;;;;;4968465;28;20143;-75
2022/10/26 06:35:00;;;;;;;21.58;15.88;;;10.00;99.90;;;;;;4969449;28;20486;-75
2022/10/26 06:37:28;;;;;;;23.67;17.13;;;10.00;99.90;;;;;;4969972;28;20058;-76
2022/10/26 06:39:56;;;;;;;25.55;16.77;;;10.00;99.90;;;;;;4970427;28;20128;-74
2022/10/26 06:42:22;;;;;;;23.88;16.23;;;10.00;99.90;;;;;;4970883;28;20043;-76
2022/10/26 06:44:48;;;;;;;21.80;16.42;;;10.00;99.90;;;;;;4954615;28;20065;-74
2022/10/26 06:47:22;;;;;;;24.88;16.77;;;9.90;99.90;;;;;;4970895;28;20051;-74
2022/10/26 06:50:01;;;;;;;24.42;16.02;;;10.00;99.90;;;;;;4984757;28;20483;-75
2022/10/26 06:52:40;;;;;;;25.08;15.70;;;10.00;99.90;;;;;;4972521;28;20047;-75
2022/10/26 06:55:13;;;;;;;21.45;15.60;;;10.00;99.90;;;;;;4969101;28;20328;-76
2022/10/26 06:57:41;;;;;;;18.50;12.57;;;10.10;99.90;;;;;;4974906;28;20042;-76
2022/10/26 07:00:08;;;;;;;19.50;12.43;;;10.30;99.90;;;;;;4989970;28;20038;-73
2022/10/26 07:02:33;;;;;;;18.98;12.15;;;10.20;99.90;;;;;;4990580;28;20038;-76
2022/10/26 07:04:59;;;;;;;19.50;12.43;;;10.30;99.90;;;;;;4976079;28;20117;-77
2022/10/26 07:07:28;;;;;;;16.10;11.20;;;10.30;99.90;;;;;;4958520;28;20046;-73
2022/10/26 07:09:54;;;;;;;16.60;10.73;;;10.40;99.90;;;;;;4972011;28;20060;-77
2022/10/26 07:12:20;;;;;;;18.27;12.23;;;10.40;99.90;;;;;;4973693;28;20467;-77
2022/10/26 07:14:46;;;;;;;18.58;11.57;;;10.40;99.90;;;;;;4972604;28;20049;-76
2022/10/26 07:17:12;;;;;;;16.67;12.10;;;10.50;99.90;;;;;;4973680;28;20054;-77
2022/10/26 07:19:39;;;;;;;16.55;11.63;;;10.40;99.90;;;;;;4972321;28;20053;-76
2022/10/26 07:22:05;;;;;;;16.08;11.02;;;10.50;99.90;;;;;;4973339;28;20047;-76
2022/10/26 07:24:31;;;;;;;19.17;11.65;;;10.50;99.90;;;;;;4971176;28;20443;-74
2022/10/26 07:26:57;;;;;;;18.80;11.77;;;10.50;99.90;;;;;;4960558;28;20039;-76
2022/10/26 07:29:25;;;;;;;14.73;11.38;;;10.50;99.90;;;;;;4973254;28;20047;-76
2022/10/26 07:31:51;;;;;;;17.52;11.52;;;10.50;99.90;;;;;;4973845;28;20059;-76
2022/10/26 07:34:17;;;;;;;17.20;11.13;;;10.50;99.90;;;;;;4969926;28;20050;-74
2022/10/26 07:36:43;;;;;;;18.13;11.43;;;10.60;99.90;;;;;;4972421;28;20058;-75
2022/10/26 07:39:09;;;;;;;17.60;11.10;;;10.60;99.90;;;;;;4977179;28;20049;-73
2022/10/26 07:41:34;;;;;;;15.40;10.80;;;10.60;99.90;;;;;;4973601;28;20069;-73
2022/10/26 07:44:00;;;;;;;17.67;10.95;;;10.70;99.90;;;;;;4979391;28;20125;-74
2022/10/26 07:46:26;;;;;;;17.50;10.40;;;10.80;99.90;;;;;;4973088;28;20050;-75
2022/10/26 07:48:52;;;;;;;17.17;10.55;;;10.80;99.90;;;;;;4971305;28;20074;-73
2022/10/26 07:51:18;;;;;;;15.20;10.60;;;11.00;99.90;;;;;;4973436;28;20510;-75
2022/10/26 07:53:45;;;;;;;16.48;10.52;;;11.10;99.90;;;;;;4973640;28;20122;-76
2022/10/26 07:56:11;;;;;;;14.55;9.52;;;11.20;99.90;;;;;;4974604;28;20443;-74
2022/10/26 07:58:37;;;;;;;13.65;9.23;;;11.40;99.90;;;;;;4973030;28;20051;-74
2022/10/26 08:01:14;;;;;;;13.75;9.10;;;11.50;99.90;;;;;;4998048;28;20169;-74
2022/10/26 08:03:40;;;;;;;13.90;9.38;;;11.50;99.90;;;;;;4972401;28;20038;-74
2022/10/26 08:06:08;;;;;;;15.65;9.07;;;11.70;99.90;;;;;;4973375;28;20054;-73
2022/10/26 08:08:34;;;;;;;17.73;9.45;;;11.80;99.90;;;;;;4972371;28;20047;-75
2022/10/26 08:10:59;;;;;;;13.25;8.60;;;11.90;99.90;;;;;;4988871;28;20387;-74
2022/10/26 08:13:25;;;;;;;14.85;9.98;;;12.00;99.90;;;;;;4972973;28;20051;-75
2022/10/26 08:16:03;;;;;;;14.43;8.73;;;12.10;99.90;;;;;;4995122;28;20463;-75
2022/10/26 08:18:29;;;;;;;13.60;8.27;;;12.20;99.90;;;;;;4972902;28;20124;-75
2022/10/26 08:21:05;;;;;;;11.88;7.18;;;12.30;99.90;;;;;;4939858;28;20554;-73
2022/10/26 08:23:31;;;;;;;12.57;7.35;;;12.40;99.90;;;;;;4971574;28;20085;-75
2022/10/26 08:25:58;;;;;;;11.55;6.63;;;12.40;99.90;;;;;;4989211;28;20054;-73
2022/10/26 08:28:24;;;;;;;12.77;6.80;;;12.40;99.90;;;;;;4973193;28;20101;-74
2022/10/26 08:30:50;;;;;;;10.98;6.18;;;12.40;99.90;;;;;;4978760;28;20053;-75
2022/10/26 08:33:16;;;;;;;11.13;6.30;;;12.50;99.90;;;;;;4987677;28;20054;-75
2022/10/26 08:35:41;;;;;;;11.48;5.78;;;12.60;99.90;;;;;;4941077;28;20057;-74
2022/10/26 08:38:07;;;;;;;10.38;5.97;;;12.80;99.90;;;;;;4972629;28;20046;-74
2022/10/26 08:40:38;;;;;;;13.90;6.05;;;13.00;99.90;;;;;;4956533;28;20133;-74
2022/10/26 08:43:36;;;;;;;11.48;5.70;;;13.10;99.90;;;;;;4988439;28;20490;-74
2022/10/26 08:46:04;;;;;;;10.45;5.30;;;13.20;99.90;;;;;;4962985;28;20061;-75
2022/10/26 08:48:37;;;;;;;9.35;5.30;;;13.50;99.90;;;;;;4969536;28;20075;-76
2022/10/26 08:51:09;;;;;;;9.52;4.40;;;13.60;99.90;;;;;;4972133;28;20063;-76
2022/10/26 08:53:50;;;;;;;9.82;4.60;;;13.80;99.90;;;;;;4972543;28;20054;-75
2022/10/26 08:56:32;;;;;;;9.75;4.18;;;13.90;99.90;;;;;;4973095;28;20126;-75
2022/10/26 08:59:04;;;;;;;9.13;4.60;;;13.80;99.90;;;;;;4972071;28;20046;-75
2022/10/26 09:01:30;;;;;;;9.88;4.10;;;13.90;99.90;;;;;;4972103;28;20042;-76
2022/10/26 09:03:59;;;;;;;8.85;4.03;;;13.80;99.90;;;;;;4971743;28;20384;-75
2022/10/26 09:06:49;;;;;;;8.05;3.97;;;13.80;99.90;;;;;;4994979;28;20185;-74
2022/10/26 09:09:22;;;;;;;8.80;3.95;;;13.90;99.90;;;;;;4971851;28;20046;-76
2022/10/26 09:12:06;;;;;;;10.93;4.30;;;14.00;99.90;;;;;;4969063;28;20198;-76
2022/10/26 09:14:47;;;;;;;8.82;4.22;;;14.20;99.90;;;;;;4969308;28;20043;-76
2022/10/26 09:17:30;;;;;;;10.75;4.47;;;14.50;99.90;;;;;;4984942;28;20101;-77
2022/10/26 09:20:17;;;;;;;8.52;4.22;;;14.80;99.90;;;;;;4965032;28;20038;-76
2022/10/26 09:23:15;;;;;;;8.88;4.10;;;15.00;99.90;;;;;;4984760;28;20070;-77
2022/10/26 09:25:41;;;;;;;10.13;4.30;;;15.30;99.90;;;;;;4969429;28;20058;-77
2022/10/26 09:28:16;;;;;;;8.85;4.00;;;15.50;99.90;;;;;;4968580;28;20491;-76
2022/10/26 09:30:44;;;;;;;9.13;4.20;;;15.70;99.90;;;;;;4970118;28;20031;-77
2022/10/26 09:33:21;;;;;;;7.53;3.60;;;15.90;99.90;;;;;;4984503;28;20110;-76
2022/10/26 09:35:55;;;;;;;10.98;3.72;;;16.00;99.90;;;;;;4968623;28;20061;-75
2022/10/26 09:38:30;;;;;;;8.77;3.90;;;16.10;99.90;;;;;;4951545;28;20046;-76
2022/10/26 09:41:20;;;;;;;7.53;3.65;;;16.20;99.90;;;;;;4990862;28;20035;-76
2022/10/26 09:44:03;;;;;;;7.88;3.90;;;16.30;99.90;;;;;;4950901;28;20047;-76
2022/10/26 09:46:33;;;;;;;8.15;3.70;;;16.40;99.90;;;;;;4968684;28;20340;-76
2022/10/26 09:49:05;;;;;;;8.50;3.70;;;16.50;99.90;;;;;;4966708;28;20075;-77
2022/10/26 09:51:35;;;;;;;11.30;3.63;;;16.50;99.90;;;;;;4984087;28;22020;-77
2022/10/26 09:54:01;;;;;;;8.52;3.75;;;16.60;99.90;;;;;;4985567;28;20058;-76
2022/10/26 09:56:29;;;;;;;6.70;3.25;;;16.70;99.90;;;;;;4967982;28;20090;-78
2022/10/26 09:59:03;;;;;;;8.65;3.50;;;16.80;99.90;;;;;;4984431;28;20054;-76
2022/10/26 10:01:33;;;;;;;6.95;3.10;;;16.90;99.90;;;;;;4986686;28;20567;-76
2022/10/26 10:04:15;;;;;;;10.77;3.40;;;16.80;99.90;;;;;;4986679;28;20085;-77
2022/10/26 10:06:43;;;;;;;8.23;3.30;;;16.70;99.90;;;;;;4992612;28;20073;-76
2022/10/26 10:09:20;;;;;;;6.65;3.03;;;16.70;99.90;;;;;;4985026;28;20125;-76
2022/10/26 10:11:56;;;;;;;9.75;3.20;;;16.60;99.90;;;;;;4986681;28;20054;-76
2022/10/26 10:14:55;;;;;;;6.55;2.70;;;16.50;99.90;;;;;;4970122;28;20078;-77
2022/10/26 10:17:22;;;;;;;9.82;3.20;;;16.50;99.90;;;;;;4967393;28;20078;-76
2022/10/26 10:19:49;;;;;;;8.63;3.00;;;16.50;99.90;;;;;;4983378;28;20045;-77
2022/10/26 10:22:14;;;;;;;7.10;3.30;;;16.50;99.90;;;;;;4970736;28;20047;-77
2022/10/26 10:24:51;;;;;;;8.35;3.10;;;16.40;99.90;;;;;;4965967;28;20046;-77
2022/10/26 10:27:18;;;;;;;7.55;3.10;;;16.50;99.90;;;;;;4984177;28;20038;-76
2022/10/26 10:29:49;;;;;;;7.47;3.28;;;16.50;99.90;;;;;;4967992;28;20109;-76
2022/10/26 10:32:20;;;;;;;6.32;2.80;;;16.50;99.90;;;;;;4983766;28;20074;-76
2022/10/26 10:34:51;;;;;;;8.57;3.10;;;16.50;99.90;;;;;;4949672;28;20061;-76
2022/10/26 10:37:45;;;;;;;8.35;3.08;;;16.50;99.90;;;;;;4967667;28;20062;-76
2022/10/26 10:40:18;;;;;;;10.10;3.28;;;16.60;99.90;;;;;;4980723;28;20130;-77
2022/10/26 10:42:46;;;;;;;8.50;3.30;;;16.80;99.90;;;;;;4983725;28;20050;-77
2022/10/26 10:45:28;;;;;;;8.75;3.08;;;16.90;99.90;;;;;;4971836;28;20046;-77
2022/10/26 10:48:04;;;;;;;7.80;3.03;;;17.00;99.90;;;;;;4952400;28;20059;-76
2022/10/26 10:50:32;;;;;;;7.60;3.10;;;17.10;99.90;;;;;;4969264;28;20106;-76
2022/10/26 10:53:25;;;;;;;9.52;3.20;;;17.10;99.90;;;;;;4970507;28;20042;-76
2022/10/26 10:56:21;;;;;;;8.15;3.08;;;17.20;99.90;;;;;;4970986;28;20429;-76
2022/10/26 10:59:07;;;;;;;6.13;2.80;;;17.40;99.90;;;;;;4963673;28;20074;-76
2022/10/26 11:01:39;;;;;;;9.35;3.10;;;17.50;99.90;;;;;;4968260;28;20059;-78
2022/10/26 11:04:05;;;;;;;6.80;2.60;;;17.70;99.90;;;;;;4984739;28;20090;-77
2022/10/26 11:06:35;;;;;;;7.47;2.60;;;17.90;99.90;;;;;;4970050;28;20446;-77
2022/10/26 11:09:02;;;;;;;6.07;2.60;;;18.00;99.90;;;;;;4971388;28;21170;-77
2022/10/26 11:11:35;;;;;;;8.07;2.75;;;18.10;99.90;;;;;;4971019;28;20494;-77
2022/10/26 11:14:31;;;;;;;7.88;2.55;;;18.20;99.90;;;;;;4968383;28;20471;-76
2022/10/26 11:17:11;;;;;;;7.93;2.95;;;18.30;99.90;;;;;;4968606;28;20090;-75
2022/10/26 11:19:44;;;;;;;7.63;2.92;;;18.40;99.90;;;;;;4968248;28;20125;-78
2022/10/26 11:22:15;;;;;;;7.35;2.42;;;18.40;99.90;;;;;;4970006;28;20046;-78
2022/10/26 11:24:49;;;;;;;8.40;2.60;;;18.40;99.90;;;;;;4969596;28;20046;-77
2022/10/26 11:27:17;;;;;;;6.97;2.72;;;18.40;99.90;;;;;;4984984;28;20051;-78
2022/10/26 11:30:05;;;;;;;6.63;2.30;;;18.50;99.90;;;;;;4981868;28;20510;-76
2022/10/26 11:32:42;;;;;;;8.55;3.00;;;18.50;99.90;;;;;;4985852;28;20479;-78
2022/10/26 11:35:21;;;;;;;7.43;2.60;;;18.60;99.90;;;;;;4984709;28;20117;-78
2022/10/26 11:38:03;;;;;;;7.32;2.75;;;18.80;99.90;;;;;;4969021;28;20042;-78
2022/10/26 11:40:28;;;;;;;;;;;18.90;99.90;;;;;;4968574;28;20105;-78
2022/10/26 11:43:15;;;;;;;6.65;2.70;;;18.90;99.90;;;;;;4972649;28;20000;-78
2022/10/26 11:45:44;;;;;;;7.85;2.88;;;18.90;99.90;;;;;;4973607;28;20043;-77
2022/10/26 11:48:26;;;;;;;6.18;2.78;;;18.90;99.90;;;;;;4972392;28;20162;-77
2022/10/26 11:50:59;;;;;;;8.50;3.00;;;18.90;99.90;;;;;;4972133;28;20043;-76
2022/10/26 11:53:29;;;;;;;7.75;3.10;;;18.90;99.90;;;;;;4971545;28;20054;-77
2022/10/26 11:55:57;;;;;;;7.45;3.00;;;18.80;99.90;;;;;;4973512;28;20426;-77
2022/10/26 11:58:25;;;;;;;7.75;2.88;;;18.80;99.90;;;;;;4987391;28;20051;-77
2022/10/26 12:01:00;;;;;;;7.85;3.20;;;18.70;99.90;;;;;;4988504;28;20382;-77
2022/10/26 12:03:34;;;;;;;9.25;3.13;;;18.70;99.90;;;;;;4970940;28;20054;-77
2022/10/26 12:06:00;;;;;;;9.13;3.15;;;18.70;99.90;;;;;;4971615;28;20125;-77
2022/10/26 12:08:39;;;;;;;10.63;3.55;;;18.70;99.90;;;;;;4979165;28;20177;-77
2022/10/26 12:11:23;;;;;;;9.00;3.13;;;18.70;99.90;;;;;;4972061;28;20383;-77
2022/10/26 12:14:23;;;;;;;7.93;3.00;;;18.70;99.90;;;;;;4971185;28;20045;-76
2022/10/26 12:17:07;;;;;;;10.00;3.10;;;18.70;99.90;;;;;;4987452;28;20054;-76
2022/10/26 12:19:50;;;;;;;9.23;3.38;;;18.70;99.90;;;;;;4996329;28;20531;-76
2022/10/26 12:22:17;;;;;;;9.27;3.20;;;18.70;99.90;;;;;;4971914;28;20053;-76
2022/10/26 12:24:45;;;;;;;9.57;3.20;;;18.60;99.90;;;;;;4972558;28;20504;-76
2022/10/26 12:27:47;;;;;;;7.70;3.40;;;18.60;99.90;;;;;;4973071;28;20494;-76
2022/10/26 12:30:13;;;;;;;;;;;18.60;99.90;;;;;;4972877;28;20058;-76
2022/10/26 12:32:46;;;;;;;9.27;3.70;;;18.60;99.90;;;;;;4972254;28;19930;-76
2022/10/26 12:35:44;;;;;;;7.55;3.30;;;18.50;99.90;;;;;;4956457;28;20130;-75
2022/10/26 12:38:25;;;;;;;8.73;3.05;;;18.40;99.90;;;;;;4988053;28;20097;-76
2022/10/26 12:41:02;;;;;;;9.20;3.40;;;18.40;99.90;;;;;;4970577;28;20093;-76
2022/10/26 12:43:28;;;;;;;10.40;3.60;;;18.40;99.90;;;;;;4987771;28;20043;-75
2022/10/26 12:46:12;;;;;;;9.05;3.17;;;18.40;99.90;;;;;;4972764;28;20056;-75
2022/10/26 12:48:50;;;;;;;9.20;3.60;;;18.50;99.90;;;;;;4967429;28;20417;-76
2022/10/26 12:51:21;;;;;;;9.35;3.20;;;18.60;99.90;;;;;;4974224;28;20043;-75
2022/10/26 12:54:05;;;;;;;9.85;3.60;;;18.60;99.90;;;;;;4972068;28;20045;-76
2022/10/26 12:57:21;;;;;;;8.48;3.40;;;18.70;99.90;;;;;;4972053;28;20389;-75
2022/10/26 12:59:53;;;;;;;8.95;3.83;;;18.60;99.90;;;;;;4969669;28;20043;-75
2022/10/26 13:02:28;;;;;;;;;;;18.60;99.90;;;;;;4970951;28;20045;-75